<?xml version="1.0" encoding="utf-8"?>
<gpx xmlns:xsi="http://www.w3.org/2001/XMLSchema-instance" xmlns:xsd="http://www.w3.org/2001/XMLSchema" version="1.1" creator="Shapelink.com" xmlns="http://www.topografix.com/GPX/1/1" xmlns:gpxtpx="http://www.garmin.com/xmlschemas/TrackPointExtension/v1">
  <metadata>
    <name>Övrigt 2.75 km, 2019-05-12</name>
    <desc></desc>
    <author><name>Marian Moron</name></author> 
    <time>2019-05-12T10:48:39Z</time>
  </metadata>
  <trk>
    <name>Övrigt 2.75 km, 2019-05-12</name>
    <trkseg>
      <trkpt lat="51.207735627166" lon="4.406722485673">
        <ele>3.4</ele>
        <time>2019-05-12T10:48:39Z</time>
      </trkpt>
      <trkpt lat="51.207792372629" lon="4.40676380844">
        <ele>3.6</ele>
        <time>2019-05-12T10:48:48Z</time>
      </trkpt>
      <trkpt lat="51.208067382768" lon="4.407059521872">
        <ele>3.6</ele>
        <time>2019-05-12T10:49:15Z</time>
      </trkpt>
      <trkpt lat="51.208158494021" lon="4.407330760156">
        <ele>3.4</ele>
        <time>2019-05-12T10:49:32Z</time>
      </trkpt>
      <trkpt lat="51.208203085729" lon="4.407257669988">
        <ele>4</ele>
        <time>2019-05-12T10:49:37Z</time>
      </trkpt>
      <trkpt lat="51.208512713115" lon="4.406735393799">
        <ele>8.8</ele>
        <time>2019-05-12T10:50:15Z</time>
      </trkpt>
      <trkpt lat="51.20855252714" lon="4.406691137367">
        <ele>9.6</ele>
        <time>2019-05-12T10:50:19Z</time>
      </trkpt>
      <trkpt lat="51.208822927234" lon="4.406273970204">
        <ele>11.4</ele>
        <time>2019-05-12T10:50:45Z</time>
      </trkpt>
      <trkpt lat="51.208869865874" lon="4.406143715478">
        <ele>11.4</ele>
        <time>2019-05-12T10:50:53Z</time>
      </trkpt>
      <trkpt lat="51.209280746612" lon="4.405833836635">
        <ele>9.8</ele>
        <time>2019-05-12T10:51:27Z</time>
      </trkpt>
      <trkpt lat="51.20947285976" lon="4.405685979919">
        <ele>9.6</ele>
        <time>2019-05-12T10:51:47Z</time>
      </trkpt>
      <trkpt lat="51.209761113301" lon="4.405975406926">
        <ele>7.6</ele>
        <time>2019-05-12T10:52:10Z</time>
      </trkpt>
      <trkpt lat="51.210036542535" lon="4.406528444688">
        <ele>0</ele>
        <time>2019-05-12T10:52:37Z</time>
      </trkpt>
      <trkpt lat="51.210359580961" lon="4.407055163284">
        <ele>14.6</ele>
        <time>2019-05-12T10:53:08Z</time>
      </trkpt>
      <trkpt lat="51.210682116473" lon="4.407553634877">
        <ele>10</ele>
        <time>2019-05-12T10:53:38Z</time>
      </trkpt>
      <trkpt lat="51.21068823526" lon="4.407567465012">
        <ele>9.4</ele>
        <time>2019-05-12T10:53:39Z</time>
      </trkpt>
      <trkpt lat="51.210719667385" lon="4.40756930903">
        <ele>9.6</ele>
        <time>2019-05-12T10:53:43Z</time>
      </trkpt>
      <trkpt lat="51.211032563712" lon="4.407467468945">
        <ele>13.4</ele>
        <time>2019-05-12T10:54:51Z</time>
      </trkpt>
      <trkpt lat="51.211050836254" lon="4.407470989343">
        <ele>14.4</ele>
        <time>2019-05-12T10:55:23Z</time>
      </trkpt>
      <trkpt lat="51.211074305574" lon="4.407446346557">
        <ele>16</ele>
        <time>2019-05-12T10:55:27Z</time>
      </trkpt>
      <trkpt lat="51.211094925048" lon="4.407433438431">
        <ele>16.8</ele>
        <time>2019-05-12T10:55:30Z</time>
      </trkpt>
      <trkpt lat="51.211142618059" lon="4.407412232224">
        <ele>17.4</ele>
        <time>2019-05-12T10:55:58Z</time>
      </trkpt>
      <trkpt lat="51.211165668284" lon="4.407443999625">
        <ele>16.6</ele>
        <time>2019-05-12T10:56:02Z</time>
      </trkpt>
      <trkpt lat="51.21118360555" lon="4.407460595787">
        <ele>15.8</ele>
        <time>2019-05-12T10:56:04Z</time>
      </trkpt>
      <trkpt lat="51.211433134713" lon="4.407749016966">
        <ele>5.4</ele>
        <time>2019-05-12T10:57:00Z</time>
      </trkpt>
      <trkpt lat="51.211455765843" lon="4.407706604552">
        <ele>5.2</ele>
        <time>2019-05-12T10:57:02Z</time>
      </trkpt>
      <trkpt lat="51.211812750964" lon="4.407271583942">
        <ele>9.6</ele>
        <time>2019-05-12T10:57:33Z</time>
      </trkpt>
      <trkpt lat="51.211909981004" lon="4.407241157645">
        <ele>12.8</ele>
        <time>2019-05-12T10:57:37Z</time>
      </trkpt>
      <trkpt lat="51.211713257811" lon="4.407641728646">
        <ele>13.6</ele>
        <time>2019-05-12T10:57:46Z</time>
      </trkpt>
      <trkpt lat="51.211433721446" lon="4.407793189579">
        <ele>13.6</ele>
        <time>2019-05-12T10:57:59Z</time>
      </trkpt>
      <trkpt lat="51.211644190955" lon="4.407568806116">
        <ele>13.4</ele>
        <time>2019-05-12T10:58:15Z</time>
      </trkpt>
      <trkpt lat="51.211806967453" lon="4.40762630595">
        <ele>24.8</ele>
        <time>2019-05-12T10:58:32Z</time>
      </trkpt>
      <trkpt lat="51.212004528836" lon="4.407603842458">
        <ele>25.6</ele>
        <time>2019-05-12T10:58:47Z</time>
      </trkpt>
      <trkpt lat="51.212068147457" lon="4.407707861837">
        <ele>29.2</ele>
        <time>2019-05-12T10:58:54Z</time>
      </trkpt>
      <trkpt lat="51.21209471808" lon="4.407682883775">
        <ele>29</ele>
        <time>2019-05-12T10:58:56Z</time>
      </trkpt>
      <trkpt lat="51.212245508461" lon="4.407566040089">
        <ele>26.6</ele>
        <time>2019-05-12T10:59:18Z</time>
      </trkpt>
      <trkpt lat="51.212705339495" lon="4.407465038194">
        <ele>31</ele>
        <time>2019-05-12T10:59:57Z</time>
      </trkpt>
      <trkpt lat="51.212793265626" lon="4.407422877237">
        <ele>29.8</ele>
        <time>2019-05-12T11:00:02Z</time>
      </trkpt>
      <trkpt lat="51.213247648425" lon="4.40723822398">
        <ele>22.6</ele>
        <time>2019-05-12T11:00:28Z</time>
      </trkpt>
      <trkpt lat="51.213318056385" lon="4.407228836252">
        <ele>23.2</ele>
        <time>2019-05-12T11:00:35Z</time>
      </trkpt>
      <trkpt lat="51.213686859985" lon="4.407086176314">
        <ele>11.6</ele>
        <time>2019-05-12T11:00:56Z</time>
      </trkpt>
      <trkpt lat="51.213718543567" lon="4.407116099697">
        <ele>10.6</ele>
        <time>2019-05-12T11:00:58Z</time>
      </trkpt>
      <trkpt lat="51.213743018715" lon="4.407288012466">
        <ele>7.8</ele>
        <time>2019-05-12T11:01:04Z</time>
      </trkpt>
      <trkpt lat="51.213793896848" lon="4.408014052644">
        <ele>4.2</ele>
        <time>2019-05-12T11:01:33Z</time>
      </trkpt>
      <trkpt lat="51.213799345083" lon="4.408075911066">
        <ele>6.6</ele>
        <time>2019-05-12T11:01:36Z</time>
      </trkpt>
      <trkpt lat="51.21393454513" lon="4.408816032836">
        <ele>16.8</ele>
        <time>2019-05-12T11:02:09Z</time>
      </trkpt>
      <trkpt lat="51.21408541933" lon="4.40913420976">
        <ele>6</ele>
        <time>2019-05-12T11:02:28Z</time>
      </trkpt>
      <trkpt lat="51.214152223073" lon="4.409240073157">
        <ele>5.6</ele>
        <time>2019-05-12T11:02:38Z</time>
      </trkpt>
      <trkpt lat="51.21419019308" lon="4.409274774223">
        <ele>4.8</ele>
        <time>2019-05-12T11:02:44Z</time>
      </trkpt>
      <trkpt lat="51.214215925513" lon="4.409300841932">
        <ele>5.2</ele>
        <time>2019-05-12T11:02:49Z</time>
      </trkpt>
      <trkpt lat="51.214265546361" lon="4.409382481638">
        <ele>6.8</ele>
        <time>2019-05-12T11:03:00Z</time>
      </trkpt>
      <trkpt lat="51.214278957401" lon="4.409421289835">
        <ele>6.4</ele>
        <time>2019-05-12T11:05:13Z</time>
      </trkpt>
      <trkpt lat="51.214327823878" lon="4.409422714758">
        <ele>5.8</ele>
        <time>2019-05-12T11:05:20Z</time>
      </trkpt>
      <trkpt lat="51.214373589052" lon="4.409419529636">
        <ele>5.6</ele>
        <time>2019-05-12T11:05:24Z</time>
      </trkpt>
      <trkpt lat="51.214531084953" lon="4.40934124269">
        <ele>8</ele>
        <time>2019-05-12T11:05:36Z</time>
      </trkpt>
      <trkpt lat="51.214509794927" lon="4.40930436233">
        <ele>11.2</ele>
        <time>2019-05-12T11:06:06Z</time>
      </trkpt>
      <trkpt lat="51.214523625062" lon="4.409373429186">
        <ele>16.2</ele>
        <time>2019-05-12T11:06:15Z</time>
      </trkpt>
      <trkpt lat="51.2145405565" lon="4.409477280927">
        <ele>21.4</ele>
        <time>2019-05-12T11:06:22Z</time>
      </trkpt>
      <trkpt lat="51.214577855955" lon="4.409668639704">
        <ele>27.2</ele>
        <time>2019-05-12T11:06:35Z</time>
      </trkpt>
      <trkpt lat="51.214566708028" lon="4.410211870643">
        <ele>19.2</ele>
        <time>2019-05-12T11:07:06Z</time>
      </trkpt>
      <trkpt lat="51.214328242973" lon="4.410199046336">
        <ele>9.8</ele>
        <time>2019-05-12T11:07:25Z</time>
      </trkpt>
      <trkpt lat="51.214312485001" lon="4.410175157921">
        <ele>9.4</ele>
        <time>2019-05-12T11:07:27Z</time>
      </trkpt>
      <trkpt lat="51.214334948493" lon="4.409747010469">
        <ele>19</ele>
        <time>2019-05-12T11:07:50Z</time>
      </trkpt>
      <trkpt lat="51.214344000945" lon="4.409528242879">
        <ele>23</ele>
        <time>2019-05-12T11:07:59Z</time>
      </trkpt>
      <trkpt lat="51.214481799381" lon="4.409426486613">
        <ele>18.2</ele>
        <time>2019-05-12T11:08:09Z</time>
      </trkpt>
      <trkpt lat="51.214495880973" lon="4.40937979943">
        <ele>15.8</ele>
        <time>2019-05-12T11:08:12Z</time>
      </trkpt>
      <trkpt lat="51.214519098836" lon="4.409367645675">
        <ele>14.2</ele>
        <time>2019-05-12T11:08:15Z</time>
      </trkpt>
      <trkpt lat="51.21454977659" lon="4.409367142761">
        <ele>16.2</ele>
        <time>2019-05-12T11:08:18Z</time>
      </trkpt>
      <trkpt lat="51.214528151288" lon="4.409262536649">
        <ele>9.4</ele>
        <time>2019-05-12T11:08:44Z</time>
      </trkpt>
      <trkpt lat="51.214474507128" lon="4.409333866618">
        <ele>15.8</ele>
        <time>2019-05-12T11:12:54Z</time>
      </trkpt>
      <trkpt lat="51.214446930677" lon="4.409358257947">
        <ele>16.6</ele>
        <time>2019-05-12T11:12:58Z</time>
      </trkpt>
      <trkpt lat="51.214527648374" lon="4.409476861832">
        <ele>17.6</ele>
        <time>2019-05-12T11:13:21Z</time>
      </trkpt>
      <trkpt lat="51.214436872397" lon="4.409517514047">
        <ele>19</ele>
        <time>2019-05-12T11:13:36Z</time>
      </trkpt>
      <trkpt lat="51.21455061478" lon="4.4093068769">
        <ele>17.2</ele>
        <time>2019-05-12T11:14:30Z</time>
      </trkpt>
      <trkpt lat="51.214542987251" lon="4.409303188864">
        <ele>15.6</ele>
        <time>2019-05-12T11:14:32Z</time>
      </trkpt>
      <trkpt lat="51.214499066095" lon="4.409325819994">
        <ele>13.4</ele>
        <time>2019-05-12T11:16:50Z</time>
      </trkpt>
      <trkpt lat="51.214497557353" lon="4.409333196066">
        <ele>13</ele>
        <time>2019-05-12T11:17:05Z</time>
      </trkpt>
      <trkpt lat="51.21451960175" lon="4.409291118928">
        <ele>16.8</ele>
        <time>2019-05-12T11:18:12Z</time>
      </trkpt>
      <trkpt lat="51.214530749677" lon="4.409341745604">
        <ele>14.6</ele>
        <time>2019-05-12T11:19:11Z</time>
      </trkpt>
      <trkpt lat="51.21453552736" lon="4.409334369532">
        <ele>14</ele>
        <time>2019-05-12T11:19:13Z</time>
      </trkpt>
      <trkpt lat="51.214569390236" lon="4.40939572504">
        <ele>15.2</ele>
        <time>2019-05-12T11:19:19Z</time>
      </trkpt>
      <trkpt lat="51.214568719684" lon="4.409815071497">
        <ele>13.2</ele>
        <time>2019-05-12T11:19:37Z</time>
      </trkpt>
      <trkpt lat="51.214571234254" lon="4.410320500067">
        <ele>18.2</ele>
        <time>2019-05-12T11:20:02Z</time>
      </trkpt>
      <trkpt lat="51.214730490354" lon="4.41031102852">
        <ele>11.6</ele>
        <time>2019-05-12T11:20:18Z</time>
      </trkpt>
      <trkpt lat="51.21475261857" lon="4.410293677987">
        <ele>8.6</ele>
        <time>2019-05-12T11:20:47Z</time>
      </trkpt>
      <trkpt lat="51.214754211131" lon="4.410302311344">
        <ele>9.8</ele>
        <time>2019-05-12T11:21:03Z</time>
      </trkpt>
      <trkpt lat="51.214771226388" lon="4.41028839739">
        <ele>13.6</ele>
        <time>2019-05-12T11:22:41Z</time>
      </trkpt>
      <trkpt lat="51.214590177348" lon="4.410342209188">
        <ele>16.8</ele>
        <time>2019-05-12T11:23:05Z</time>
      </trkpt>
      <trkpt lat="51.214547178201" lon="4.410298371851">
        <ele>19.6</ele>
        <time>2019-05-12T11:23:11Z</time>
      </trkpt>
      <trkpt lat="51.214539802129" lon="4.410261659129">
        <ele>19.2</ele>
        <time>2019-05-12T11:23:13Z</time>
      </trkpt>
      <trkpt lat="51.214595122669" lon="4.409548191801">
        <ele>7.2</ele>
        <time>2019-05-12T11:23:51Z</time>
      </trkpt>
      <trkpt lat="51.214552877893" lon="4.409497481306">
        <ele>7.4</ele>
        <time>2019-05-12T11:23:54Z</time>
      </trkpt>
      <trkpt lat="51.214507364176" lon="4.409485579008">
        <ele>7.6</ele>
        <time>2019-05-12T11:23:58Z</time>
      </trkpt>
      <trkpt lat="51.214462688649" lon="4.409401340913">
        <ele>7.6</ele>
        <time>2019-05-12T11:24:05Z</time>
      </trkpt>
      <trkpt lat="51.214439051691" lon="4.409377620136">
        <ele>10.8</ele>
        <time>2019-05-12T11:29:01Z</time>
      </trkpt>
      <trkpt lat="51.214549692771" lon="4.409428330631">
        <ele>11.4</ele>
        <time>2019-05-12T11:29:38Z</time>
      </trkpt>
      <trkpt lat="51.21444667922" lon="4.409406453872">
        <ele>11.2</ele>
        <time>2019-05-12T11:30:02Z</time>
      </trkpt>
      <trkpt lat="51.214428741954" lon="4.409392875194">
        <ele>12.8</ele>
        <time>2019-05-12T11:34:05Z</time>
      </trkpt>
      <trkpt lat="51.214448020324" lon="4.409401005637">
        <ele>15.8</ele>
        <time>2019-05-12T11:34:19Z</time>
      </trkpt>
      <trkpt lat="51.214449948161" lon="4.409389270977">
        <ele>15.2</ele>
        <time>2019-05-12T11:34:27Z</time>
      </trkpt>
      <trkpt lat="51.214448774695" lon="4.409440819662">
        <ele>11.6</ele>
        <time>2019-05-12T11:36:47Z</time>
      </trkpt>
      <trkpt lat="51.21441818076" lon="4.409412069745">
        <ele>7</ele>
        <time>2019-05-12T11:37:36Z</time>
      </trkpt>
      <trkpt lat="51.214437794406" lon="4.409395389764">
        <ele>8</ele>
        <time>2019-05-12T11:37:47Z</time>
      </trkpt>
      <trkpt lat="51.214443075003" lon="4.409390444443">
        <ele>9.6</ele>
        <time>2019-05-12T11:38:18Z</time>
      </trkpt>
      <trkpt lat="51.214430837429" lon="4.409396647049">
        <ele>7.4</ele>
        <time>2019-05-12T11:40:01Z</time>
      </trkpt>
      <trkpt lat="51.214234198055" lon="4.409380889077">
        <ele>4.4</ele>
        <time>2019-05-12T11:40:36Z</time>
      </trkpt>
      <trkpt lat="51.214055747404" lon="4.409269409807">
        <ele>9.6</ele>
        <time>2019-05-12T11:40:55Z</time>
      </trkpt>
      <trkpt lat="51.214050466807" lon="4.409264715943">
        <ele>9.8</ele>
        <time>2019-05-12T11:40:56Z</time>
      </trkpt>
      <trkpt lat="51.214028003315" lon="4.409198331295">
        <ele>13.2</ele>
        <time>2019-05-12T11:41:03Z</time>
      </trkpt>
      <trkpt lat="51.213985423263" lon="4.408460891733">
        <ele>24.8</ele>
        <time>2019-05-12T11:41:33Z</time>
      </trkpt>
      <trkpt lat="51.213897245675" lon="4.407767457146">
        <ele>20.8</ele>
        <time>2019-05-12T11:42:06Z</time>
      </trkpt>
      <trkpt lat="51.213894647286" lon="4.407651954564">
        <ele>22.6</ele>
        <time>2019-05-12T11:42:13Z</time>
      </trkpt>
      <trkpt lat="51.213866987016" lon="4.407448106756">
        <ele>18.2</ele>
        <time>2019-05-12T11:42:20Z</time>
      </trkpt>
      <trkpt lat="51.213816444159" lon="4.407383817583">
        <ele>12</ele>
        <time>2019-05-12T11:42:29Z</time>
      </trkpt>
      <trkpt lat="51.213597844207" lon="4.407264543146">
        <ele>19.2</ele>
        <time>2019-05-12T11:42:43Z</time>
      </trkpt>
      <trkpt lat="51.213490723525" lon="4.407256496522">
        <ele>27</ele>
        <time>2019-05-12T11:42:54Z</time>
      </trkpt>
      <trkpt lat="51.213263071121" lon="4.407237469609">
        <ele>30.8</ele>
        <time>2019-05-12T11:43:15Z</time>
      </trkpt>
      <trkpt lat="51.213232058091" lon="4.407247946984">
        <ele>30</ele>
        <time>2019-05-12T11:43:17Z</time>
      </trkpt>
      <trkpt lat="51.213066683204" lon="4.407224896759">
        <ele>36.6</ele>
        <time>2019-05-12T11:43:33Z</time>
      </trkpt>
      <trkpt lat="51.212836767687" lon="4.407468810049">
        <ele>28.2</ele>
        <time>2019-05-12T11:43:48Z</time>
      </trkpt>
      <trkpt lat="51.212413649375" lon="4.407544582425">
        <ele>10.2</ele>
        <time>2019-05-12T11:44:22Z</time>
      </trkpt>
      <trkpt lat="51.212231762145" lon="4.407615912394">
        <ele>14</ele>
        <time>2019-05-12T11:44:39Z</time>
      </trkpt>
      <trkpt lat="51.212038726988" lon="4.407644829949">
        <ele>23.6</ele>
        <time>2019-05-12T11:44:48Z</time>
      </trkpt>
      <trkpt lat="51.211583673637" lon="4.407762595644">
        <ele>21</ele>
        <time>2019-05-12T11:45:09Z</time>
      </trkpt>
      <trkpt lat="51.211144378258" lon="4.407806768257">
        <ele>36.6</ele>
        <time>2019-05-12T11:45:40Z</time>
      </trkpt>
      <trkpt lat="51.211137840376" lon="4.407785981145">
        <ele>37</ele>
        <time>2019-05-12T11:45:42Z</time>
      </trkpt>
      <trkpt lat="51.211143875344" lon="4.407759745798">
        <ele>36.8</ele>
        <time>2019-05-12T11:45:46Z</time>
      </trkpt>
      <trkpt lat="51.211143288611" lon="4.4077646073">
        <ele>38</ele>
        <time>2019-05-12T11:45:58Z</time>
      </trkpt>
      <trkpt lat="51.211128620286" lon="4.407794949778">
        <ele>38.2</ele>
        <time>2019-05-12T11:46:01Z</time>
      </trkpt>
      <trkpt lat="51.210685133957" lon="4.407733091356">
        <ele>21.4</ele>
        <time>2019-05-12T11:46:34Z</time>
      </trkpt>
      <trkpt lat="51.210626712114" lon="4.407646925424">
        <ele>18</ele>
        <time>2019-05-12T11:46:39Z</time>
      </trkpt>
      <trkpt lat="51.210602488423" lon="4.407609290693">
        <ele>17.2</ele>
        <time>2019-05-12T11:46:41Z</time>
      </trkpt>
      <trkpt lat="51.210323203515" lon="4.407033035068">
        <ele>14</ele>
        <time>2019-05-12T11:47:13Z</time>
      </trkpt>
      <trkpt lat="51.210311804131" lon="4.407005039522">
        <ele>15</ele>
        <time>2019-05-12T11:47:15Z</time>
      </trkpt>
      <trkpt lat="51.210301410575" lon="4.406861373756">
        <ele>23.8</ele>
        <time>2019-05-12T11:47:25Z</time>
      </trkpt>
      <trkpt lat="51.210027154807" lon="4.406300540827">
        <ele>25.4</ele>
        <time>2019-05-12T11:47:53Z</time>
      </trkpt>
      <trkpt lat="51.210016593613" lon="4.40628017281">
        <ele>25.2</ele>
        <time>2019-05-12T11:47:54Z</time>
      </trkpt>
      <trkpt lat="51.209738398352" lon="4.405716573854">
        <ele>22.8</ele>
        <time>2019-05-12T11:48:23Z</time>
      </trkpt>
      <trkpt lat="51.209715515765" lon="4.405707521402">
        <ele>23.8</ele>
        <time>2019-05-12T11:48:27Z</time>
      </trkpt>
      <trkpt lat="51.209276807119" lon="4.405963923723">
        <ele>33.6</ele>
        <time>2019-05-12T11:49:00Z</time>
      </trkpt>
      <trkpt lat="51.209157029768" lon="4.406147906428">
        <ele>23.8</ele>
        <time>2019-05-12T11:49:18Z</time>
      </trkpt>
      <trkpt lat="51.208745981392" lon="4.406507154662">
        <ele>28.4</ele>
        <time>2019-05-12T11:49:44Z</time>
      </trkpt>
      <trkpt lat="51.208429145572" lon="4.407036974561">
        <ele>21.6</ele>
        <time>2019-05-12T11:50:10Z</time>
      </trkpt>
      <trkpt lat="51.20810912463" lon="4.407296226728">
        <ele>19</ele>
        <time>2019-05-12T11:50:52Z</time>
      </trkpt>
      <trkpt lat="51.208095294495" lon="4.407281223127">
        <ele>19</ele>
        <time>2019-05-12T11:50:53Z</time>
      </trkpt>
      <trkpt lat="51.207776866114" lon="4.406764395173">
        <ele>10.2</ele>
        <time>2019-05-12T11:51:34Z</time>
      </trkpt>
      <trkpt lat="51.20776462854" lon="4.406699100172">
        <ele>6.2</ele>
        <time>2019-05-12T11:52:13Z</time>
      </trkpt>
    </trkseg>
  </trk>
</gpx>